sensor_id;sensor_type;location;lat;lon;timestamp;pressure;altitude;pressure_sealevel;temperature;humidity
80892;BME280;70343;51.530;5.050;2023-09-19T00:00:34;100777.53;;;15.45;100.00
80892;BME280;70343;51.530;5.050;2023-09-19T00:03:01;100787.69;;;15.42;100.00
80892;BME280;70343;51.530;5.050;2023-09-19T00:05:28;100780.72;;;15.47;100.00
80892;BME280;70343;51.530;5.050;2023-09-19T00:07:55;100787.59;;;15.48;100.00
80892;BME280;70343;51.530;5.050;2023-09-19T00:10:30;100797.22;;;15.36;100.00
80892;BME280;70343;51.530;5.050;2023-09-19T00:13:03;100787.72;;;15.35;100.00
80892;BME280;70343;51.530;5.050;2023-09-19T00:15:46;100795.34;;;15.43;100.00
80892;BME280;70343;51.530;5.050;2023-09-19T00:18:13;100791.75;;;15.38;100.00
80892;BME280;70343;51.530;5.050;2023-09-19T00:20:41;100806.06;;;15.42;100.00
80892;BME280;70343;51.530;5.050;2023-09-19T00:23:07;100798.19;;;15.42;100.00
80892;BME280;70343;51.530;5.050;2023-09-19T00:25:36;100811.16;;;15.37;100.00
80892;BME280;70343;51.530;5.050;2023-09-19T00:28:03;100816.03;;;15.33;100.00
80892;BME280;70343;51.530;5.050;2023-09-19T00:30:29;100807.97;;;15.35;100.00
80892;BME280;70343;51.530;5.050;2023-09-19T00:32:55;100818.41;;;15.23;100.00
80892;BME280;70343;51.530;5.050;2023-09-19T00:35:21;100815.69;;;15.11;100.00
80892;BME280;70343;51.530;5.050;2023-09-19T00:37:53;100821.09;;;15.16;100.00
80892;BME280;70343;51.530;5.050;2023-09-19T00:40:19;100826.41;;;15.10;100.00
80892;BME280;70343;51.530;5.050;2023-09-19T00:42:47;100826.69;;;15.20;100.00
80892;BME280;70343;51.530;5.050;2023-09-19T00:45:14;100833.28;;;15.11;100.00
80892;BME280;70343;51.530;5.050;2023-09-19T00:47:49;100835.53;;;15.07;100.00
80892;BME280;70343;51.530;5.050;2023-09-19T00:50:19;100839.41;;;15.05;100.00
80892;BME280;70343;51.530;5.050;2023-09-19T00:52:47;100846.03;;;15.07;100.00
80892;BME280;70343;51.530;5.050;2023-09-19T00:55:15;100847.28;;;15.05;100.00
80892;BME280;70343;51.530;5.050;2023-09-19T00:57:41;100848.72;;;15.01;100.00
80892;BME280;70343;51.530;5.050;2023-09-19T01:00:10;100861.84;;;15.01;100.00
80892;BME280;70343;51.530;5.050;2023-09-19T01:02:37;100862.13;;;14.93;100.00
80892;BME280;70343;51.530;5.050;2023-09-19T01:05:03;100860.72;;;14.90;100.00
80892;BME280;70343;51.530;5.050;2023-09-19T01:07:31;100859.78;;;14.85;100.00
80892;BME280;70343;51.530;5.050;2023-09-19T01:10:02;100862.63;;;14.83;100.00
80892;BME280;70343;51.530;5.050;2023-09-19T01:29:49;100866.91;;;14.78;100.00
80892;BME280;70343;51.530;5.050;2023-09-19T01:32:18;100885.56;;;14.70;98.65
80892;BME280;70343;51.530;5.050;2023-09-19T01:34:53;100882.50;;;14.73;98.08
80892;BME280;70343;51.530;5.050;2023-09-19T01:37:23;100872.44;;;14.70;99.40
80892;BME280;70343;51.530;5.050;2023-09-19T01:39:56;100872.84;;;14.67;99.18
80892;BME280;70343;51.530;5.050;2023-09-19T01:42:35;100879.13;;;14.66;97.38
80892;BME280;70343;51.530;5.050;2023-09-19T01:45:08;100883.94;;;14.69;98.88
80892;BME280;70343;51.530;5.050;2023-09-19T01:47:42;100885.38;;;14.65;97.99
80892;BME280;70343;51.530;5.050;2023-09-19T01:50:45;100874.88;;;14.65;98.28
80892;BME280;70343;51.530;5.050;2023-09-19T01:55:54;100881.78;;;14.59;97.65
80892;BME280;70343;51.530;5.050;2023-09-19T02:00:50;100868.94;;;14.51;95.76
80892;BME280;70343;51.530;5.050;2023-09-19T02:03:18;100869.09;;;14.56;97.41
80892;BME280;70343;51.530;5.050;2023-09-19T02:05:53;100871.38;;;14.53;93.86
80892;BME280;70343;51.530;5.050;2023-09-19T02:08:20;100879.00;;;14.54;95.08
80892;BME280;70343;51.530;5.050;2023-09-19T02:10:49;100874.66;;;14.42;94.67
80892;BME280;70343;51.530;5.050;2023-09-19T02:13:18;100875.84;;;14.46;95.32
80892;BME280;70343;51.530;5.050;2023-09-19T02:15:44;100879.31;;;14.40;95.57
80892;BME280;70343;51.530;5.050;2023-09-19T02:18:12;100870.47;;;14.34;96.75
80892;BME280;70343;51.530;5.050;2023-09-19T02:20:37;100883.53;;;14.47;95.67
80892;BME280;70343;51.530;5.050;2023-09-19T02:23:03;100885.56;;;14.45;95.40
80892;BME280;70343;51.530;5.050;2023-09-19T02:25:29;100882.34;;;14.43;95.36
80892;BME280;70343;51.530;5.050;2023-09-19T02:27:54;100876.69;;;14.40;94.00
80892;BME280;70343;51.530;5.050;2023-09-19T02:30:24;100872.94;;;14.29;94.29
80892;BME280;70343;51.530;5.050;2023-09-19T02:32:50;100877.97;;;14.31;93.84
80892;BME280;70343;51.530;5.050;2023-09-19T02:35:16;100875.94;;;14.26;94.41
80892;BME280;70343;51.530;5.050;2023-09-19T02:37:41;100887.88;;;14.28;94.45
80892;BME280;70343;51.530;5.050;2023-09-19T02:40:08;100884.03;;;14.31;92.51
80892;BME280;70343;51.530;5.050;2023-09-19T02:42:47;100872.34;;;14.20;91.79
80892;BME280;70343;51.530;5.050;2023-09-19T02:45:20;100887.47;;;14.32;94.35
80892;BME280;70343;51.530;5.050;2023-09-19T02:47:46;100887.28;;;14.20;92.20
80892;BME280;70343;51.530;5.050;2023-09-19T02:50:13;100883.66;;;14.27;91.17
80892;BME280;70343;51.530;5.050;2023-09-19T02:52:42;100884.63;;;14.26;91.82
80892;BME280;70343;51.530;5.050;2023-09-19T02:55:15;100879.00;;;14.23;92.46
80892;BME280;70343;51.530;5.050;2023-09-19T02:57:49;100879.22;;;14.21;91.98
80892;BME280;70343;51.530;5.050;2023-09-19T03:00:17;100888.50;;;14.17;92.23
80892;BME280;70343;51.530;5.050;2023-09-19T03:02:55;100881.41;;;14.24;91.21
80892;BME280;70343;51.530;5.050;2023-09-19T03:05:22;100888.09;;;14.20;93.35
80892;BME280;70343;51.530;5.050;2023-09-19T03:07:49;100889.97;;;14.07;92.48
80892;BME280;70343;51.530;5.050;2023-09-19T03:10:20;100886.97;;;14.03;92.29
80892;BME280;70343;51.530;5.050;2023-09-19T03:12:46;100892.19;;;14.10;92.39
80892;BME280;70343;51.530;5.050;2023-09-19T03:15:13;100888.56;;;14.04;93.20
80892;BME280;70343;51.530;5.050;2023-09-19T03:17:46;100888.75;;;14.09;93.09
80892;BME280;70343;51.530;5.050;2023-09-19T03:20:15;100899.50;;;14.01;93.74
80892;BME280;70343;51.530;5.050;2023-09-19T03:22:43;100902.94;;;13.95;92.42
80892;BME280;70343;51.530;5.050;2023-09-19T03:25:09;100889.84;;;13.95;92.83
80892;BME280;70343;51.530;5.050;2023-09-19T03:27:39;100893.22;;;14.02;94.00
80892;BME280;70343;51.530;5.050;2023-09-19T03:30:07;100886.63;;;13.93;94.22
80892;BME280;70343;51.530;5.050;2023-09-19T03:32:34;100896.50;;;13.91;94.01
80892;BME280;70343;51.530;5.050;2023-09-19T03:35:01;100893.06;;;13.97;94.50
80892;BME280;70343;51.530;5.050;2023-09-19T03:37:26;100892.09;;;13.85;92.71
80892;BME280;70343;51.530;5.050;2023-09-19T03:39:52;100898.13;;;13.92;94.42
80892;BME280;70343;51.530;5.050;2023-09-19T03:42:17;100895.47;;;13.99;95.75
80892;BME280;70343;51.530;5.050;2023-09-19T03:44:43;100892.44;;;13.95;95.40
80892;BME280;70343;51.530;5.050;2023-09-19T03:47:08;100892.88;;;13.92;95.54
80892;BME280;70343;51.530;5.050;2023-09-19T03:49:34;100888.84;;;13.96;95.64
80892;BME280;70343;51.530;5.050;2023-09-19T03:51:59;100881.28;;;14.06;95.86
80892;BME280;70343;51.530;5.050;2023-09-19T03:54:25;100882.91;;;14.07;96.66
80892;BME280;70343;51.530;5.050;2023-09-19T03:56:51;100894.84;;;14.03;95.32
80892;BME280;70343;51.530;5.050;2023-09-19T03:59:16;100888.16;;;14.07;96.04
80892;BME280;70343;51.530;5.050;2023-09-19T04:01:43;100885.69;;;14.12;95.89
80892;BME280;70343;51.530;5.050;2023-09-19T04:04:09;100880.91;;;14.09;96.93
80892;BME280;70343;51.530;5.050;2023-09-19T04:06:35;100876.88;;;14.00;96.20
80892;BME280;70343;51.530;5.050;2023-09-19T04:09:04;100881.88;;;14.08;97.26
80892;BME280;70343;51.530;5.050;2023-09-19T04:11:32;100883.50;;;14.09;97.28
80892;BME280;70343;51.530;5.050;2023-09-19T04:13:58;100890.16;;;14.12;97.10
80892;BME280;70343;51.530;5.050;2023-09-19T04:16:24;100899.75;;;14.24;97.17
80892;BME280;70343;51.530;5.050;2023-09-19T04:18:49;100900.13;;;14.35;96.71
80892;BME280;70343;51.530;5.050;2023-09-19T04:21:15;100904.63;;;14.27;96.87
80892;BME280;70343;51.530;5.050;2023-09-19T04:23:41;100914.06;;;14.35;96.40
80892;BME280;70343;51.530;5.050;2023-09-19T04:26:06;100910.38;;;14.43;95.75
80892;BME280;70343;51.530;5.050;2023-09-19T04:28:32;100920.88;;;14.43;96.90
80892;BME280;70343;51.530;5.050;2023-09-19T04:31:00;100929.38;;;14.38;97.45
80892;BME280;70343;51.530;5.050;2023-09-19T04:33:26;100933.78;;;14.44;95.94
80892;BME280;70343;51.530;5.050;2023-09-19T04:35:52;100924.09;;;14.45;95.91
80892;BME280;70343;51.530;5.050;2023-09-19T04:38:18;100938.06;;;14.39;96.68
80892;BME280;70343;51.530;5.050;2023-09-19T04:40:45;100948.31;;;14.47;95.88
80892;BME280;70343;51.530;5.050;2023-09-19T04:43:10;100939.66;;;14.40;97.05
80892;BME280;70343;51.530;5.050;2023-09-19T04:45:38;100948.56;;;14.32;98.27
80892;BME280;70343;51.530;5.050;2023-09-19T04:48:04;100951.78;;;14.34;98.69
80892;BME280;70343;51.530;5.050;2023-09-19T04:50:31;100958.47;;;14.30;98.63
80892;BME280;70343;51.530;5.050;2023-09-19T04:52:57;100953.03;;;14.32;98.11
80892;BME280;70343;51.530;5.050;2023-09-19T04:55:23;100956.88;;;14.29;99.07
80892;BME280;70343;51.530;5.050;2023-09-19T04:57:50;100967.59;;;14.27;98.76
80892;BME280;70343;51.530;5.050;2023-09-19T05:00:20;100957.91;;;14.21;99.12
80892;BME280;70343;51.530;5.050;2023-09-19T05:02:53;100965.56;;;14.30;98.81
80892;BME280;70343;51.530;5.050;2023-09-19T05:05:21;100953.66;;;14.20;99.08
80892;BME280;70343;51.530;5.050;2023-09-19T05:07:48;100952.00;;;14.26;98.59
80892;BME280;70343;51.530;5.050;2023-09-19T05:10:13;100951.47;;;14.17;99.51
80892;BME280;70343;51.530;5.050;2023-09-19T05:12:40;100951.84;;;14.14;100.00
80892;BME280;70343;51.530;5.050;2023-09-19T05:15:07;100950.66;;;14.17;100.00
80892;BME280;70343;51.530;5.050;2023-09-19T05:17:34;100962.94;;;14.16;100.00
80892;BME280;70343;51.530;5.050;2023-09-19T05:20:00;100955.66;;;14.25;100.00
80892;BME280;70343;51.530;5.050;2023-09-19T05:22:56;100954.28;;;14.16;100.00
80892;BME280;70343;51.530;5.050;2023-09-19T05:25:22;100959.91;;;14.19;100.00
80892;BME280;70343;51.530;5.050;2023-09-19T05:27:47;100964.97;;;14.14;100.00
80892;BME280;70343;51.530;5.050;2023-09-19T05:30:13;100965.94;;;14.26;100.00
80892;BME280;70343;51.530;5.050;2023-09-19T05:32:40;100957.91;;;14.21;100.00
80892;BME280;70343;51.530;5.050;2023-09-19T05:35:06;100958.50;;;14.23;100.00
80892;BME280;70343;51.530;5.050;2023-09-19T05:37:35;100969.63;;;14.12;100.00
80892;BME280;70343;51.530;5.050;2023-09-19T05:40:02;100968.03;;;14.11;100.00
80892;BME280;70343;51.530;5.050;2023-09-19T05:42:34;100967.41;;;14.09;100.00
80892;BME280;70343;51.530;5.050;2023-09-19T05:45:00;100958.28;;;14.18;100.00
80892;BME280;70343;51.530;5.050;2023-09-19T05:47:25;100964.81;;;14.09;100.00
80892;BME280;70343;51.530;5.050;2023-09-19T05:49:51;100962.56;;;14.13;100.00
80892;BME280;70343;51.530;5.050;2023-09-19T05:52:17;100962.94;;;14.16;100.00
80892;BME280;70343;51.530;5.050;2023-09-19T05:54:43;100966.16;;;14.18;100.00
80892;BME280;70343;51.530;5.050;2023-09-19T05:57:08;100962.78;;;14.11;100.00
80892;BME280;70343;51.530;5.050;2023-09-19T05:59:36;100958.28;;;14.18;100.00
80892;BME280;70343;51.530;5.050;2023-09-19T06:02:01;100957.09;;;14.14;100.00
80892;BME280;70343;51.530;5.050;2023-09-19T06:04:27;100960.31;;;14.30;100.00
80892;BME280;70343;51.530;5.050;2023-09-19T06:06:52;100963.97;;;14.15;100.00
80892;BME280;70343;51.530;5.050;2023-09-19T06:09:17;100956.47;;;14.25;100.00
80892;BME280;70343;51.530;5.050;2023-09-19T06:11:44;100964.75;;;14.29;100.00
80892;BME280;70343;51.530;5.050;2023-09-19T06:14:09;100958.69;;;14.28;100.00
80892;BME280;70343;51.530;5.050;2023-09-19T06:16:36;100968.69;;;14.45;100.00
80892;BME280;70343;51.530;5.050;2023-09-19T06:19:03;100961.06;;;14.37;100.00
80892;BME280;70343;51.530;5.050;2023-09-19T06:21:31;100971.56;;;14.37;100.00
80892;BME280;70343;51.530;5.050;2023-09-19T06:23:57;100977.31;;;14.52;100.00
80892;BME280;70343;51.530;5.050;2023-09-19T06:26:23;100981.47;;;14.35;100.00
80892;BME280;70343;51.530;5.050;2023-09-19T06:28:48;100989.25;;;14.48;100.00
80892;BME280;70343;51.530;5.050;2023-09-19T06:31:14;100991.03;;;14.54;100.00
80892;BME280;70343;51.530;5.050;2023-09-19T06:33:39;100990.19;;;14.60;100.00
80892;BME280;70343;51.530;5.050;2023-09-19T06:36:06;100984.19;;;14.53;100.00
80892;BME280;70343;51.530;5.050;2023-09-19T06:38:32;100993.84;;;14.59;100.00
80892;BME280;70343;51.530;5.050;2023-09-19T06:40:59;101002.00;;;14.75;100.00
80892;BME280;70343;51.530;5.050;2023-09-19T06:43:26;100998.97;;;14.78;100.00
80892;BME280;70343;51.530;5.050;2023-09-19T06:45:53;101005.59;;;14.81;100.00
80892;BME280;70343;51.530;5.050;2023-09-19T06:48:20;101005.59;;;14.81;100.00
80892;BME280;70343;51.530;5.050;2023-09-19T06:50:47;100999.72;;;14.85;100.00
80892;BME280;70343;51.530;5.050;2023-09-19T06:53:13;101003.56;;;14.83;100.00
80892;BME280;70343;51.530;5.050;2023-09-19T06:55:39;101005.19;;;14.84;100.00
80892;BME280;70343;51.530;5.050;2023-09-19T06:58:05;100989.81;;;14.87;100.00
80892;BME280;70343;51.530;5.050;2023-09-19T07:00:31;100991.84;;;14.85;100.00
80892;BME280;70343;51.530;5.050;2023-09-19T07:03:08;100998.81;;;14.98;100.00
80892;BME280;70343;51.530;5.050;2023-09-19T07:05:37;101016.03;;;14.94;100.00
80892;BME280;70343;51.530;5.050;2023-09-19T07:08:05;101011.34;;;15.27;99.36
80892;BME280;70343;51.530;5.050;2023-09-19T07:10:32;100999.84;;;15.22;99.84
80892;BME280;70343;51.530;5.050;2023-09-19T07:12:58;101007.19;;;15.38;99.53
80892;BME280;70343;51.530;5.050;2023-09-19T07:15:24;101009.88;;;15.31;99.41
80892;BME280;70343;51.530;5.050;2023-09-19T07:17:51;101011.13;;;15.53;98.97
80892;BME280;70343;51.530;5.050;2023-09-19T07:20:18;101005.25;;;15.76;98.48
80892;BME280;70343;51.530;5.050;2023-09-19T07:22:44;100994.50;;;15.95;96.59
80892;BME280;70343;51.530;5.050;2023-09-19T07:25:10;100993.78;;;16.07;95.79
80892;BME280;70343;51.530;5.050;2023-09-19T07:27:35;101003.84;;;15.73;96.56
80892;BME280;70343;51.530;5.050;2023-09-19T07:30:00;101000.06;;;15.87;95.91
80892;BME280;70343;51.530;5.050;2023-09-19T07:32:26;101002.78;;;15.81;96.81
80892;BME280;70343;51.530;5.050;2023-09-19T07:34:51;100998.59;;;16.10;96.63
80892;BME280;70343;51.530;5.050;2023-09-19T07:37:17;100995.72;;;16.29;95.19
80892;BME280;70343;51.530;5.050;2023-09-19T07:39:42;101009.41;;;16.01;95.11
80892;BME280;70343;51.530;5.050;2023-09-19T07:42:10;101003.56;;;16.18;95.92
80892;BME280;70343;51.530;5.050;2023-09-19T07:44:36;101007.34;;;16.40;95.96
80892;BME280;70343;51.530;5.050;2023-09-19T07:47:02;101003.06;;;16.39;94.01
80892;BME280;70343;51.530;5.050;2023-09-19T07:49:28;101004.00;;;16.44;94.45
80892;BME280;70343;51.530;5.050;2023-09-19T07:51:54;101003.19;;;16.62;93.33
80892;BME280;70343;51.530;5.050;2023-09-19T07:54:20;101000.16;;;16.76;93.70
80892;BME280;70343;51.530;5.050;2023-09-19T07:56:46;101001.59;;;16.90;93.30
80892;BME280;70343;51.530;5.050;2023-09-19T07:59:12;101014.19;;;16.59;92.88
80892;BME280;70343;51.530;5.050;2023-09-19T08:01:39;101006.78;;;16.67;93.13
80892;BME280;70343;51.530;5.050;2023-09-19T08:04:07;101014.81;;;16.72;93.46
80892;BME280;70343;51.530;5.050;2023-09-19T08:06:32;101018.69;;;16.70;92.95
80892;BME280;70343;51.530;5.050;2023-09-19T08:08:58;101014.31;;;16.64;93.58
80892;BME280;70343;51.530;5.050;2023-09-19T08:11:26;101014.97;;;16.89;92.66
80892;BME280;70343;51.530;5.050;2023-09-19T08:13:56;101009.16;;;16.99;91.95
80892;BME280;70343;51.530;5.050;2023-09-19T08:16:21;101014.06;;;16.95;92.10
80892;BME280;70343;51.530;5.050;2023-09-19T08:18:48;101007.88;;;16.89;92.28
80892;BME280;70343;51.530;5.050;2023-09-19T08:21:13;101009.25;;;16.92;91.13
80892;BME280;70343;51.530;5.050;2023-09-19T08:23:41;101007.22;;;17.06;90.45
80892;BME280;70343;51.530;5.050;2023-09-19T08:26:07;101012.25;;;17.19;91.44
80892;BME280;70343;51.530;5.050;2023-09-19T08:28:36;101009.84;;;17.06;89.97
80892;BME280;70343;51.530;5.050;2023-09-19T08:31:06;101010.78;;;17.11;91.13
80892;BME280;70343;51.530;5.050;2023-09-19T08:33:36;101012.50;;;17.17;90.88
80892;BME280;70343;51.530;5.050;2023-09-19T08:36:03;101010.53;;;17.01;91.87
80892;BME280;70343;51.530;5.050;2023-09-19T08:38:33;100994.84;;;17.06;91.42
80892;BME280;70343;51.530;5.050;2023-09-19T08:40:59;101000.88;;;16.95;90.75
80892;BME280;70343;51.530;5.050;2023-09-19T08:43:26;101004.00;;;17.04;91.59
80892;BME280;70343;51.530;5.050;2023-09-19T08:46:12;100995.53;;;17.25;90.03
80892;BME280;70343;51.530;5.050;2023-09-19T08:49:03;101006.56;;;17.45;89.93
80892;BME280;70343;51.530;5.050;2023-09-19T08:51:41;101010.63;;;17.59;90.65
80892;BME280;70343;51.530;5.050;2023-09-19T08:54:14;101004.16;;;17.90;89.40
80892;BME280;70343;51.530;5.050;2023-09-19T08:56:46;101017.13;;;17.79;88.06
80892;BME280;70343;51.530;5.050;2023-09-19T08:59:13;101016.78;;;17.88;89.05
80892;BME280;70343;51.530;5.050;2023-09-19T09:01:40;101008.28;;;17.86;88.76
80892;BME280;70343;51.530;5.050;2023-09-19T09:04:08;101009.41;;;17.90;88.01
80892;BME280;70343;51.530;5.050;2023-09-19T09:06:35;101004.78;;;18.08;87.85
80892;BME280;70343;51.530;5.050;2023-09-19T09:09:02;100997.56;;;18.15;87.93
80892;BME280;70343;51.530;5.050;2023-09-19T09:11:33;101015.38;;;18.36;86.38
80892;BME280;70343;51.530;5.050;2023-09-19T09:13:58;101016.31;;;18.70;84.39
80892;BME280;70343;51.530;5.050;2023-09-19T09:16:24;101012.63;;;18.71;84.06
80892;BME280;70343;51.530;5.050;2023-09-19T09:18:51;101007.63;;;18.58;83.31
80892;BME280;70343;51.530;5.050;2023-09-19T09:21:18;101002.91;;;18.60;84.22
80892;BME280;70343;51.530;5.050;2023-09-19T09:23:44;101004.50;;;18.61;84.24
80892;BME280;70343;51.530;5.050;2023-09-19T09:26:09;100999.28;;;18.49;82.52
80892;BME280;70343;51.530;5.050;2023-09-19T09:28:35;100998.38;;;18.44;83.46
80892;BME280;70343;51.530;5.050;2023-09-19T09:31:04;100994.88;;;18.27;83.73
80892;BME280;70343;51.530;5.050;2023-09-19T09:33:38;100983.19;;;18.23;83.46
80892;BME280;70343;51.530;5.050;2023-09-19T09:36:04;100984.47;;;18.09;83.25
80892;BME280;70343;51.530;5.050;2023-09-19T09:38:45;100992.81;;;18.29;82.82
80892;BME280;70343;51.530;5.050;2023-09-19T09:41:11;100991.38;;;18.38;82.22
80892;BME280;70343;51.530;5.050;2023-09-19T09:43:41;100997.13;;;18.46;81.73
80892;BME280;70343;51.530;5.050;2023-09-19T09:46:15;100989.78;;;18.48;82.64
80892;BME280;70343;51.530;5.050;2023-09-19T09:49:04;100984.06;;;18.28;83.60
80892;BME280;70343;51.530;5.050;2023-09-19T09:52:05;100993.66;;;18.18;82.41
80892;BME280;70343;51.530;5.050;2023-09-19T09:55:02;100988.47;;;18.51;80.77
80892;BME280;70343;51.530;5.050;2023-09-19T09:57:34;100989.59;;;18.55;80.82
80892;BME280;70343;51.530;5.050;2023-09-19T10:00:00;100997.38;;;18.45;81.74
80892;BME280;70343;51.530;5.050;2023-09-19T10:02:42;101001.22;;;18.54;82.06
80892;BME280;70343;51.530;5.050;2023-09-19T10:05:16;101026.72;;;18.77;81.15
80892;BME280;70343;51.530;5.050;2023-09-19T10:07:45;101000.63;;;18.80;79.22
80892;BME280;70343;51.530;5.050;2023-09-19T10:10:39;100991.75;;;19.19;80.13
80892;BME280;70343;51.530;5.050;2023-09-19T10:13:09;100995.28;;;19.25;77.90
80892;BME280;70343;51.530;5.050;2023-09-19T10:15:38;100990.41;;;19.17;77.78
80892;BME280;70343;51.530;5.050;2023-09-19T10:18:07;101001.44;;;19.30;79.04
80892;BME280;70343;51.530;5.050;2023-09-19T10:20:36;101006.00;;;19.02;78.48
80892;BME280;70343;51.530;5.050;2023-09-19T10:23:08;100990.38;;;19.00;76.64
80892;BME280;70343;51.530;5.050;2023-09-19T10:25:39;100996.72;;;19.16;77.73
80892;BME280;70343;51.530;5.050;2023-09-19T10:28:07;100976.28;;;18.95;77.35
80892;BME280;70343;51.530;5.050;2023-09-19T10:30:46;100979.09;;;19.21;77.75
80892;BME280;70343;51.530;5.050;2023-09-19T10:33:14;100981.09;;;19.31;76.43
80892;BME280;70343;51.530;5.050;2023-09-19T10:35:43;100986.19;;;19.32;76.41
80892;BME280;70343;51.530;5.050;2023-09-19T10:38:11;100976.31;;;19.11;76.70
80892;BME280;70343;51.530;5.050;2023-09-19T10:40:38;100971.81;;;19.28;75.73
80892;BME280;70343;51.530;5.050;2023-09-19T10:43:11;100963.16;;;19.16;74.46
80892;BME280;70343;51.530;5.050;2023-09-19T10:45:38;100973.47;;;19.51;76.06
80892;BME280;70343;51.530;5.050;2023-09-19T10:48:05;100973.88;;;19.60;75.52
80892;BME280;70343;51.530;5.050;2023-09-19T10:50:46;100962.16;;;19.56;75.97
80892;BME280;70343;51.530;5.050;2023-09-19T10:53:14;100948.25;;;19.43;74.17
80892;BME280;70343;51.530;5.050;2023-09-19T10:55:52;100960.34;;;19.23;72.79
80892;BME280;70343;51.530;5.050;2023-09-19T10:58:32;100947.44;;;19.43;73.16
80892;BME280;70343;51.530;5.050;2023-09-19T11:01:04;100951.22;;;19.69;74.00
80892;BME280;70343;51.530;5.050;2023-09-19T11:03:38;100953.16;;;19.57;73.66
80892;BME280;70343;51.530;5.050;2023-09-19T11:06:17;100959.38;;;19.45;72.67
80892;BME280;70343;51.530;5.050;2023-09-19T11:30:44;100921.41;;;20.21;70.03
80892;BME280;70343;51.530;5.050;2023-09-19T11:33:20;100901.38;;;20.30;70.31
80892;BME280;70343;51.530;5.050;2023-09-19T11:36:01;100888.38;;;20.29;69.80
80892;BME280;70343;51.530;5.050;2023-09-19T11:49:18;100889.63;;;19.95;69.15
80892;BME280;70343;51.530;5.050;2023-09-19T11:51:50;100898.25;;;20.38;71.34
80892;BME280;70343;51.530;5.050;2023-09-19T11:54:19;100901.44;;;20.67;69.18
80892;BME280;70343;51.530;5.050;2023-09-19T11:56:51;100889.84;;;20.73;70.16
80892;BME280;70343;51.530;5.050;2023-09-19T11:59:30;100890.41;;;20.80;68.91
80892;BME280;70343;51.530;5.050;2023-09-19T12:01:57;100888.19;;;20.67;68.67
80892;BME280;70343;51.530;5.050;2023-09-19T12:04:39;100890.59;;;21.05;69.23
80892;BME280;70343;51.530;5.050;2023-09-19T12:07:07;100893.59;;;20.82;69.63
80892;BME280;70343;51.530;5.050;2023-09-19T12:09:40;100907.59;;;20.78;70.95
80892;BME280;70343;51.530;5.050;2023-09-19T12:12:10;100908.25;;;20.58;71.20
80892;BME280;70343;51.530;5.050;2023-09-19T12:14:38;100916.28;;;20.15;72.13
80892;BME280;70343;51.530;5.050;2023-09-19T12:17:04;100922.22;;;20.00;72.18
80892;BME280;70343;51.530;5.050;2023-09-19T12:19:30;100920.16;;;20.07;72.40
80892;BME280;70343;51.530;5.050;2023-09-19T12:21:57;100915.03;;;19.96;72.74
80892;BME280;70343;51.530;5.050;2023-09-19T12:24:24;100900.53;;;20.03;72.30
80892;BME280;70343;51.530;5.050;2023-09-19T12:27:00;100907.84;;;20.18;71.85
80892;BME280;70343;51.530;5.050;2023-09-19T12:29:26;100907.66;;;20.51;71.22
80892;BME280;70343;51.530;5.050;2023-09-19T12:31:54;100902.84;;;20.48;71.61
80892;BME280;70343;51.530;5.050;2023-09-19T12:34:30;100903.53;;;20.65;71.54
80892;BME280;70343;51.530;5.050;2023-09-19T12:37:15;100908.69;;;20.50;72.18
80892;BME280;70343;51.530;5.050;2023-09-19T12:39:48;100880.41;;;20.56;71.57
80892;BME280;70343;51.530;5.050;2023-09-19T12:42:19;100887.94;;;20.69;70.45
80892;BME280;70343;51.530;5.050;2023-09-19T12:44:47;100881.16;;;20.83;70.80
80892;BME280;70343;51.530;5.050;2023-09-19T12:47:17;100875.97;;;20.61;69.23
80892;BME280;70343;51.530;5.050;2023-09-19T12:50:15;100880.69;;;20.27;72.13
80892;BME280;70343;51.530;5.050;2023-09-19T12:52:51;100895.78;;;20.27;72.66
80892;BME280;70343;51.530;5.050;2023-09-19T12:55:31;100897.22;;;20.39;72.04
80892;BME280;70343;51.530;5.050;2023-09-19T12:58:14;100904.28;;;20.29;72.27
80892;BME280;70343;51.530;5.050;2023-09-19T13:00:44;100896.34;;;20.07;71.62
80892;BME280;70343;51.530;5.050;2023-09-19T13:03:26;100909.47;;;20.19;72.61
80892;BME280;70343;51.530;5.050;2023-09-19T13:06:00;100907.75;;;20.08;72.17
80892;BME280;70343;51.530;5.050;2023-09-19T13:08:31;100915.03;;;19.96;72.61
80892;BME280;70343;51.530;5.050;2023-09-19T13:11:12;100899.84;;;19.86;72.84
80892;BME280;70343;51.530;5.050;2023-09-19T13:13:49;100904.53;;;19.79;73.29
80892;BME280;70343;51.530;5.050;2023-09-19T13:16:20;100901.84;;;20.01;73.36
80892;BME280;70343;51.530;5.050;2023-09-19T13:18:55;100912.03;;;19.87;72.85
80892;BME280;70343;51.530;5.050;2023-09-19T13:21:31;100898.25;;;20.12;72.52
80892;BME280;70343;51.530;5.050;2023-09-19T13:24:23;100902.78;;;19.90;72.21
80892;BME280;70343;51.530;5.050;2023-09-19T13:26:51;100898.72;;;19.82;73.87
80892;BME280;70343;51.530;5.050;2023-09-19T13:29:16;100888.34;;;19.76;73.88
80892;BME280;70343;51.530;5.050;2023-09-19T13:31:47;100900.38;;;19.88;73.66
80892;BME280;70343;51.530;5.050;2023-09-19T13:34:13;100890.91;;;19.92;72.13
80892;BME280;70343;51.530;5.050;2023-09-19T13:36:41;100903.00;;;20.10;73.44
80892;BME280;70343;51.530;5.050;2023-09-19T13:39:07;100902.56;;;20.18;72.54
80892;BME280;70343;51.530;5.050;2023-09-19T13:41:37;100907.19;;;20.06;73.29
80892;BME280;70343;51.530;5.050;2023-09-19T13:44:03;100899.69;;;19.98;74.19
80892;BME280;70343;51.530;5.050;2023-09-19T13:46:30;100897.88;;;19.77;74.60
80892;BME280;70343;51.530;5.050;2023-09-19T13:48:58;100891.41;;;19.89;73.56
80892;BME280;70343;51.530;5.050;2023-09-19T13:51:26;100910.34;;;20.03;73.94
80892;BME280;70343;51.530;5.050;2023-09-19T13:53:52;100892.63;;;19.82;72.97